X  Κλείσε Στοιχεία αεροπορικών μετεωρολογικών δεδομένων METAR     LIML Milano Linate Airport
θερμοκρασία
18°C θερμοκρασία
16°C Σημείο δρόσου
88% Υγρασία



Ανεμος
5 KM/H
3 MPH
1 M/S
3 KTS



40°
VA
Τρέχουσες συνθήκες

Μερικώς συννεφιασμένος Μερικώς συννεφιασμένος
πίεση 1014.92 (hPa) - 29.97 (inHg)
Ορατότητα 5 (μίλι) - 8 (km)
Aεροδρόμιο
Κωδικός αεροδρομίου LIML

Τοποθεσία: Milano Linate Airport
Απόσταση: 100 (km)

Metar:
LIML 210450Z AUTO 04003KT 8000 FEW094/// SCT110/// BKN140/// 18/16 Q1015

ώρα: 21-09-2020 06:50 CEST